Time;durP1;ratioP1;P1;durP2;ratioP2;P2;SDS_P1;SDS_P2;PMS_P1;PMS_P2;Temp;Humidity;BMP_temperature;BMP_pressure;BME280_temperature;BME280_humidity;BME280_pressure;Samples;Min_cycle;Max_cycle;Signal;HPM_P1;HPM_P2
2022/11/22 00:00:39;;;;;;;7.45;3.72;;;4.00;99.90;;;;;;4999756;28;20044;-74
2022/11/22 00:03:05;;;;;;;8.52;3.85;;;4.00;99.90;;;;;;4999737;28;20042;-74
2022/11/22 00:05:31;;;;;;;8.00;3.40;;;4.00;99.90;;;;;;4999535;28;20052;-74
2022/11/22 00:07:57;;;;;;;9.05;4.40;;;4.00;99.90;;;;;;5000207;28;20068;-74
2022/11/22 00:10:22;;;;;;;8.35;4.53;;;4.00;99.90;;;;;;5000035;28;20820;-74
2022/11/22 00:12:48;;;;;;;9.27;4.80;;;4.00;99.90;;;;;;5002265;28;20050;-74
2022/11/22 00:15:14;;;;;;;8.90;3.70;;;4.00;99.90;;;;;;5000829;28;20025;-74
2022/11/22 00:17:39;;;;;;;9.15;3.95;;;4.00;99.90;;;;;;4987256;28;20037;-74
2022/11/22 00:20:07;;;;;;;8.98;3.92;;;4.00;99.90;;;;;;5000015;28;20201;-74
2022/11/22 00:22:32;;;;;;;7.22;3.65;;;4.00;99.90;;;;;;5003985;28;20747;-74
2022/11/22 00:24:58;;;;;;;9.10;4.95;;;4.00;99.90;;;;;;5003457;28;20042;-74
2022/11/22 00:27:24;;;;;;;8.80;4.03;;;4.00;99.90;;;;;;5002806;28;20030;-74
2022/11/22 00:29:50;;;;;;;12.52;4.80;;;4.00;99.90;;;;;;5002471;28;20045;-74
2022/11/22 00:32:15;;;;;;;7.22;3.83;;;4.00;99.90;;;;;;5001897;28;20044;-74
2022/11/22 00:34:41;;;;;;;9.63;3.70;;;4.10;99.90;;;;;;5002479;28;20096;-74
2022/11/22 00:37:07;;;;;;;8.27;4.20;;;4.10;99.90;;;;;;5001121;28;20045;-74
2022/11/22 00:39:33;;;;;;;7.75;3.50;;;4.10;99.90;;;;;;5002864;28;20418;-74
2022/11/22 00:41:58;;;;;;;10.57;3.72;;;4.00;99.90;;;;;;4998130;28;20052;-74
2022/11/22 00:44:24;;;;;;;9.70;4.05;;;4.00;99.90;;;;;;4999918;28;20070;-74
2022/11/22 00:46:49;;;;;;;11.65;3.92;;;4.10;99.90;;;;;;5004781;28;20054;-74
2022/11/22 00:49:15;;;;;;;5.68;3.38;;;4.10;99.90;;;;;;4990875;28;21943;-74
2022/11/22 00:51:41;;;;;;;11.35;4.50;;;4.00;99.90;;;;;;5002647;28;20128;-74
2022/11/22 00:54:06;;;;;;;10.10;3.95;;;4.00;99.90;;;;;;5005065;28;20049;-72
2022/11/22 00:56:32;;;;;;;6.97;3.45;;;4.00;99.90;;;;;;5002852;28;20046;-72
2022/11/22 00:58:58;;;;;;;10.73;5.32;;;4.00;99.90;;;;;;5005265;28;20052;-72
2022/11/22 01:01:24;;;;;;;10.10;4.47;;;4.00;99.90;;;;;;4999395;28;20042;-72
2022/11/22 01:03:49;;;;;;;8.98;3.97;;;4.00;99.90;;;;;;5002547;28;20072;-72
2022/11/22 01:06:15;;;;;;;10.27;3.95;;;4.00;99.90;;;;;;5002843;28;20037;-72
2022/11/22 01:08:41;;;;;;;7.68;3.40;;;4.00;99.90;;;;;;5001744;28;20553;-72
2022/11/22 01:11:07;;;;;;;10.73;5.45;;;3.90;99.90;;;;;;5002838;28;20034;-72
2022/11/22 01:13:33;;;;;;;9.52;4.45;;;3.90;99.90;;;;;;5002010;28;20042;-72
2022/11/22 01:16:05;;;;;;;11.07;4.32;;;3.90;99.90;;;;;;5000769;28;20125;-72
2022/11/22 01:18:30;;;;;;;8.98;4.85;;;4.00;99.90;;;;;;5002337;28;20042;-72
2022/11/22 01:20:56;;;;;;;11.57;4.07;;;3.90;99.90;;;;;;5003206;28;20061;-72
2022/11/22 01:23:22;;;;;;;9.75;3.92;;;3.90;99.90;;;;;;5001265;28;20045;-72
2022/11/22 01:25:47;;;;;;;11.45;4.45;;;3.90;99.90;;;;;;4982739;28;20124;-72
2022/11/22 01:28:13;;;;;;;11.23;5.25;;;3.90;99.90;;;;;;4998521;28;20128;-72
2022/11/22 01:30:40;;;;;;;19.45;4.70;;;3.90;99.90;;;;;;4999403;28;20068;-72
2022/11/22 01:33:06;;;;;;;8.98;4.35;;;3.90;99.90;;;;;;5000665;28;20069;-72
2022/11/22 01:35:32;;;;;;;14.18;4.47;;;3.90;99.90;;;;;;5005233;28;20404;-72
2022/11/22 01:37:57;;;;;;;11.07;4.25;;;3.90;99.90;;;;;;5000823;28;20753;-72
2022/11/22 01:40:23;;;;;;;11.70;5.28;;;4.00;99.90;;;;;;4996706;28;20057;-72
2022/11/22 01:42:54;;;;;;;10.48;5.25;;;4.00;99.90;;;;;;4997175;28;20045;-72
2022/11/22 01:45:29;;;;;;;8.00;4.28;;;4.00;99.90;;;;;;4997220;28;20598;-72
2022/11/22 01:48:22;;;;;;;6.57;3.73;;;4.00;99.90;;;;;;5003201;28;20050;-72
2022/11/22 01:50:52;;;;;;;10.25;5.45;;;4.00;99.90;;;;;;5002334;28;20093;-72
2022/11/22 01:53:26;;;;;;;8.35;3.55;;;4.00;99.90;;;;;;5000274;28;20095;-72
2022/11/22 01:55:53;;;;;;;10.50;4.93;;;4.00;99.90;;;;;;5001762;28;20057;-72
2022/11/22 01:58:21;;;;;;;9.57;4.05;;;4.00;99.90;;;;;;5004540;28;20037;-72
2022/11/22 02:00:50;;;;;;;9.82;4.93;;;4.00;99.90;;;;;;5003266;28;20082;-72
2022/11/22 02:03:17;;;;;;;15.18;5.70;;;4.00;99.90;;;;;;4999114;28;20513;-72
2022/11/22 02:05:43;;;;;;;6.85;3.58;;;4.00;99.90;;;;;;4984622;28;20047;-72
2022/11/22 02:08:26;;;;;;;6.80;3.70;;;4.00;99.90;;;;;;5003929;28;20040;-72
2022/11/22 02:10:54;;;;;;;9.35;5.25;;;4.00;99.90;;;;;;5002768;28;20046;-72
2022/11/22 02:13:22;;;;;;;10.38;4.60;;;4.00;99.90;;;;;;5001700;28;20487;-72
2022/11/22 02:15:49;;;;;;;11.20;4.32;;;4.00;99.90;;;;;;4997965;28;20042;-72
2022/11/22 02:18:15;;;;;;;10.98;4.45;;;4.00;99.90;;;;;;5003692;28;20070;-72
2022/11/22 02:20:41;;;;;;;8.38;4.60;;;4.00;99.90;;;;;;4985447;28;20050;-72
2022/11/22 02:23:15;;;;;;;11.57;5.18;;;4.00;99.90;;;;;;5000169;28;20037;-72
2022/11/22 02:25:40;;;;;;;6.80;3.47;;;4.00;99.90;;;;;;4997913;28;20065;-72
2022/11/22 02:28:08;;;;;;;8.30;4.05;;;4.00;99.90;;;;;;4997081;28;20129;-72
2022/11/22 02:30:39;;;;;;;8.35;4.18;;;4.10;99.90;;;;;;4998856;28;20044;-72
2022/11/22 02:33:05;;;;;;;9.57;4.50;;;4.00;99.90;;;;;;4999005;28;20034;-72
2022/11/22 02:35:31;;;;;;;11.10;4.43;;;4.10;99.90;;;;;;4996243;28;20044;-72
2022/11/22 02:38:23;;;;;;;8.00;3.92;;;4.10;99.90;;;;;;4997835;28;20038;-72
2022/11/22 02:40:53;;;;;;;9.35;4.15;;;4.10;99.90;;;;;;4995033;28;20049;-72
2022/11/22 02:43:22;;;;;;;10.30;5.65;;;4.10;99.90;;;;;;4997744;28;20041;-71
2022/11/22 02:45:47;;;;;;;14.63;4.00;;;4.10;99.90;;;;;;5000162;28;20048;-72
2022/11/22 02:48:15;;;;;;;9.57;4.18;;;4.10;99.90;;;;;;4998868;28;21702;-72
2022/11/22 02:50:41;;;;;;;8.32;4.30;;;4.10;99.90;;;;;;4998937;28;20033;-72
2022/11/22 02:53:09;;;;;;;5.70;3.85;;;4.10;99.90;;;;;;4995936;28;20502;-72
2022/11/22 02:55:35;;;;;;;10.73;4.63;;;4.10;99.90;;;;;;5000598;28;20033;-72
2022/11/22 02:58:01;;;;;;;11.85;3.90;;;4.10;99.90;;;;;;5000772;28;20116;-72
2022/11/22 03:00:27;;;;;;;10.75;4.97;;;4.20;99.90;;;;;;4999179;28;20184;-72
2022/11/22 03:02:52;;;;;;;7.57;3.83;;;4.20;99.90;;;;;;4998177;28;20042;-71
2022/11/22 03:05:18;;;;;;;10.25;4.60;;;4.20;99.90;;;;;;5000763;28;20038;-72
2022/11/22 03:07:44;;;;;;;10.43;4.68;;;4.20;99.90;;;;;;4999549;28;20041;-72
2022/11/22 03:10:09;;;;;;;6.25;2.92;;;4.20;99.90;;;;;;5003667;28;20037;-72
2022/11/22 03:12:35;;;;;;;11.40;3.80;;;4.20;99.90;;;;;;5000130;28;20029;-72
2022/11/22 03:15:01;;;;;;;7.55;3.85;;;4.20;99.90;;;;;;4995580;28;20488;-72
2022/11/22 03:17:26;;;;;;;10.70;4.45;;;4.20;99.90;;;;;;4999536;28;20038;-72
2022/11/22 03:19:52;;;;;;;7.72;3.60;;;4.20;99.90;;;;;;4982417;28;20411;-72
2022/11/22 03:22:18;;;;;;;5.85;2.83;;;4.30;99.90;;;;;;4999044;28;20177;-71
2022/11/22 03:24:43;;;;;;;9.55;3.83;;;4.30;99.90;;;;;;5006543;28;20030;-72
2022/11/22 03:27:09;;;;;;;7.00;3.75;;;4.30;99.90;;;;;;5002771;28;20084;-72
2022/11/22 03:29:35;;;;;;;9.52;4.00;;;4.30;99.90;;;;;;4992937;28;20061;-72
2022/11/22 03:32:00;;;;;;;8.90;3.88;;;4.40;99.90;;;;;;5000322;28;20046;-72
2022/11/22 03:34:26;;;;;;;8.10;4.68;;;4.40;99.90;;;;;;4997779;28;20030;-72
2022/11/22 03:36:51;;;;;;;12.40;4.25;;;4.40;99.90;;;;;;5000093;28;20033;-72
2022/11/22 03:39:17;;;;;;;8.32;3.95;;;4.40;99.90;;;;;;4999615;28;20062;-72
2022/11/22 03:41:43;;;;;;;9.98;4.65;;;4.40;99.90;;;;;;4998399;28;20404;-72
2022/11/22 03:44:08;;;;;;;4.00;2.15;;;4.40;99.90;;;;;;4996647;28;20707;-72
2022/11/22 03:46:35;;;;;;;9.95;4.57;;;4.40;99.90;;;;;;4983146;28;20402;-72
2022/11/22 03:49:00;;;;;;;5.80;2.85;;;4.40;99.90;;;;;;4997783;28;20050;-72
2022/11/22 03:51:27;;;;;;;6.43;2.88;;;4.40;99.90;;;;;;5005595;28;20080;-73
2022/11/22 03:53:52;;;;;;;7.50;3.10;;;4.40;99.90;;;;;;5001020;28;20065;-72
2022/11/22 03:56:18;;;;;;;7.80;4.05;;;4.40;99.90;;;;;;5002456;28;20159;-72
2022/11/22 03:58:43;;;;;;;9.40;4.07;;;4.40;99.90;;;;;;4998721;28;20503;-72
2022/11/22 04:01:09;;;;;;;9.50;3.95;;;4.40;99.90;;;;;;4987262;28;20037;-72
2022/11/22 04:03:35;;;;;;;10.15;4.22;;;4.40;99.90;;;;;;5001056;28;20038;-72
2022/11/22 04:06:00;;;;;;;8.75;4.20;;;4.50;99.90;;;;;;5003831;28;20127;-72
2022/11/22 04:08:26;;;;;;;8.48;4.78;;;4.40;99.90;;;;;;5002256;28;20041;-72
2022/11/22 04:10:52;;;;;;;5.65;3.03;;;4.50;99.90;;;;;;5003014;28;20071;-72
2022/11/22 04:13:18;;;;;;;7.82;3.97;;;4.50;99.90;;;;;;4986056;28;20566;-72
2022/11/22 04:15:43;;;;;;;9.82;4.28;;;4.50;99.90;;;;;;4983110;28;20037;-72
2022/11/22 04:18:10;;;;;;;10.93;3.72;;;4.50;99.90;;;;;;5002218;28;20075;-72
2022/11/22 04:23:23;;;;;;;5.50;3.50;;;4.50;99.90;;;;;;5000556;28;20149;-72
2022/11/22 04:25:51;;;;;;;11.55;4.57;;;4.50;99.90;;;;;;4983427;28;20049;-72
2022/11/22 04:28:19;;;;;;;6.30;3.63;;;4.50;99.90;;;;;;5000161;28;20030;-72
2022/11/22 04:33:29;;;;;;;7.30;3.53;;;4.50;99.90;;;;;;5001017;28;20045;-72
2022/11/22 04:35:55;;;;;;;7.88;4.32;;;4.60;99.90;;;;;;5002644;28;20061;-72
2022/11/22 04:38:22;;;;;;;12.80;3.38;;;4.60;99.90;;;;;;5001001;28;20112;-72
2022/11/22 04:40:48;;;;;;;9.88;3.78;;;4.60;99.90;;;;;;5002343;28;20040;-72
2022/11/22 04:46:05;;;;;;;8.85;4.35;;;4.60;99.90;;;;;;5003679;28;20054;-72
2022/11/22 04:48:31;;;;;;;7.30;3.17;;;4.60;99.90;;;;;;5001297;28;20030;-72
2022/11/22 04:53:40;;;;;;;4.88;2.45;;;4.60;99.90;;;;;;4997294;28;20149;-72
2022/11/22 04:56:06;;;;;;;11.35;4.35;;;4.70;99.90;;;;;;5003806;28;20038;-72
2022/11/22 04:58:32;;;;;;;10.48;3.83;;;4.70;99.90;;;;;;5001769;28;20046;-72
2022/11/22 05:00:57;;;;;;;8.07;3.10;;;4.70;99.90;;;;;;5002338;28;20046;-72
2022/11/22 05:03:23;;;;;;;6.85;3.45;;;4.70;99.90;;;;;;4982956;28;20487;-72
2022/11/22 05:05:48;;;;;;;5.18;2.88;;;4.70;99.90;;;;;;4998753;28;20057;-72
2022/11/22 05:08:14;;;;;;;9.00;3.75;;;4.70;99.90;;;;;;4984683;28;20104;-72
2022/11/22 05:10:55;;;;;;;7.85;3.58;;;4.80;99.90;;;;;;5000690;28;20046;-72
2022/11/22 05:13:41;;;;;;;9.70;4.40;;;4.80;99.90;;;;;;4980645;28;20152;-72
2022/11/22 05:16:09;;;;;;;5.55;2.33;;;4.80;99.90;;;;;;4990453;28;20430;-72
2022/11/22 05:18:35;;;;;;;5.22;2.95;;;4.80;99.90;;;;;;5000146;28;20045;-72
2022/11/22 05:21:12;;;;;;;6.00;3.25;;;4.80;99.90;;;;;;5008062;28;20054;-72
2022/11/22 05:23:53;;;;;;;6.90;3.05;;;4.80;99.90;;;;;;5000443;28;20050;-72
2022/11/22 05:26:30;;;;;;;9.77;3.85;;;4.80;99.90;;;;;;4996929;28;20034;-72
2022/11/22 05:28:57;;;;;;;3.88;2.53;;;4.90;99.90;;;;;;4996091;28;20046;-71
2022/11/22 05:31:25;;;;;;;7.22;3.08;;;4.90;99.90;;;;;;4999180;28;20068;-72
2022/11/22 05:33:53;;;;;;;5.53;2.65;;;4.90;99.90;;;;;;5000855;28;20030;-72
2022/11/22 05:36:19;;;;;;;7.82;2.42;;;4.90;99.90;;;;;;4999015;28;20073;-72
2022/11/22 05:38:45;;;;;;;6.47;2.92;;;4.90;99.90;;;;;;4997427;28;20061;-72
2022/11/22 05:41:12;;;;;;;6.78;3.55;;;4.90;99.90;;;;;;4998634;28;20050;-71
2022/11/22 05:43:38;;;;;;;5.00;2.97;;;4.90;99.90;;;;;;4995704;28;20045;-72
2022/11/22 05:46:19;;;;;;;7.20;2.60;;;4.90;99.90;;;;;;5000719;28;20038;-72
2022/11/22 05:48:46;;;;;;;5.43;2.53;;;5.00;99.90;;;;;;5021328;28;20474;-72
2022/11/22 05:51:14;;;;;;;6.68;3.88;;;4.90;99.90;;;;;;5003278;28;20193;-72
2022/11/22 05:53:41;;;;;;;9.80;4.38;;;5.00;99.90;;;;;;4999746;28;20487;-72
2022/11/22 05:56:08;;;;;;;7.28;3.75;;;5.00;99.90;;;;;;4985313;28;20092;-72
2022/11/22 05:58:34;;;;;;;7.45;4.30;;;4.90;99.90;;;;;;4995902;28;20104;-72
2022/11/22 06:01:15;;;;;;;7.07;3.60;;;5.00;99.90;;;;;;5002707;28;20056;-72
2022/11/22 06:03:41;;;;;;;11.38;3.47;;;5.00;99.90;;;;;;4998757;28;20116;-72
2022/11/22 06:06:07;;;;;;;9.65;4.03;;;5.00;99.90;;;;;;5000296;28;20448;-72
2022/11/22 06:08:34;;;;;;;8.57;3.20;;;5.00;99.90;;;;;;4998397;28;20049;-71
2022/11/22 06:11:09;;;;;;;5.18;2.80;;;5.00;99.90;;;;;;5016665;28;20050;-72
2022/11/22 06:13:40;;;;;;;6.07;3.30;;;5.00;99.90;;;;;;4997918;28;20065;-72
2022/11/22 06:16:07;;;;;;;5.70;2.40;;;5.00;99.90;;;;;;4998857;28;20046;-72
2022/11/22 06:18:34;;;;;;;7.70;2.88;;;5.00;99.90;;;;;;4985046;28;20565;-72
2022/11/22 06:21:06;;;;;;;5.05;2.60;;;5.10;99.90;;;;;;5000417;28;20396;-72
2022/11/22 06:23:32;;;;;;;7.45;3.42;;;5.00;99.90;;;;;;4982324;28;20053;-72
2022/11/22 06:25:58;;;;;;;8.45;2.45;;;5.10;99.90;;;;;;4996522;28;20095;-72
2022/11/22 06:28:25;;;;;;;7.22;3.70;;;5.10;99.90;;;;;;4980314;28;20037;-73
2022/11/22 06:30:51;;;;;;;5.40;2.45;;;5.10;99.90;;;;;;5000130;28;20050;-72
2022/11/22 06:33:17;;;;;;;5.80;2.95;;;5.10;99.90;;;;;;5004174;28;20091;-72
2022/11/22 06:35:42;;;;;;;4.78;2.53;;;5.10;99.90;;;;;;5006674;28;20045;-72
2022/11/22 06:38:08;;;;;;;6.75;3.58;;;5.10;99.90;;;;;;4994915;28;20034;-72
2022/11/22 06:40:33;;;;;;;4.80;2.47;;;5.10;99.90;;;;;;4980918;28;20140;-72
2022/11/22 06:42:59;;;;;;;5.32;2.65;;;5.10;99.90;;;;;;4996460;28;20501;-72
2022/11/22 06:45:25;;;;;;;6.45;2.97;;;5.20;99.90;;;;;;4997754;28;20509;-72
2022/11/22 06:47:50;;;;;;;8.82;3.17;;;5.20;99.90;;;;;;4999616;28;20061;-72
2022/11/22 06:50:16;;;;;;;5.88;2.97;;;5.10;99.90;;;;;;4985631;28;20443;-72
2022/11/22 06:52:41;;;;;;;7.28;3.15;;;5.20;99.90;;;;;;4998054;28;20376;-72
2022/11/22 06:55:07;;;;;;;4.47;2.40;;;5.20;99.90;;;;;;4999905;28;20034;-74
2022/11/22 06:57:32;;;;;;;6.28;3.65;;;5.20;99.90;;;;;;5002542;28;20151;-72
2022/11/22 06:59:58;;;;;;;5.70;2.58;;;5.20;99.90;;;;;;5000088;28;20045;-74
2022/11/22 07:02:24;;;;;;;8.10;3.25;;;5.20;99.90;;;;;;4998649;28;20565;-74
2022/11/22 07:04:50;;;;;;;5.78;4.00;;;5.20;99.90;;;;;;5003286;28;20687;-74
2022/11/22 07:07:15;;;;;;;10.80;3.13;;;5.20;99.90;;;;;;5001714;28;20052;-74
2022/11/22 07:09:41;;;;;;;5.35;2.75;;;5.30;99.90;;;;;;5008005;28;20045;-74
2022/11/22 07:12:06;;;;;;;5.60;3.22;;;5.20;99.90;;;;;;5005375;28;20165;-71
2022/11/22 07:14:32;;;;;;;4.25;1.67;;;5.20;99.90;;;;;;5004657;28;20042;-72
2022/11/22 07:16:58;;;;;;;9.07;2.40;;;5.20;99.90;;;;;;5015870;28;20046;-71
2022/11/22 07:19:23;;;;;;;3.70;2.60;;;5.20;99.90;;;;;;4997957;28;20125;-72
2022/11/22 07:21:49;;;;;;;6.15;2.42;;;5.10;99.90;;;;;;4993682;28;20114;-72
2022/11/22 07:24:15;;;;;;;5.30;2.40;;;5.20;99.90;;;;;;4994790;28;20041;-72
2022/11/22 07:26:40;;;;;;;3.38;1.75;;;5.10;99.90;;;;;;4999536;28;20492;-71
2022/11/22 07:29:06;;;;;;;4.53;2.33;;;5.20;99.90;;;;;;5007737;28;20038;-72
2022/11/22 07:31:32;;;;;;;7.07;2.30;;;5.20;99.90;;;;;;4998788;28;20077;-72
2022/11/22 07:33:57;;;;;;;6.78;2.08;;;5.20;99.90;;;;;;5000838;28;20093;-72
2022/11/22 07:36:23;;;;;;;7.60;2.60;;;5.30;99.90;;;;;;4983508;28;20131;-72
2022/11/22 07:38:49;;;;;;;6.18;2.13;;;5.30;99.90;;;;;;4999389;28;20124;-72
2022/11/22 07:41:16;;;;;;;3.08;1.85;;;5.30;99.90;;;;;;4998119;28;20052;-72
2022/11/22 07:43:42;;;;;;;3.80;1.67;;;5.30;99.90;;;;;;4998544;28;20556;-72
2022/11/22 07:46:22;;;;;;;21.92;1.80;;;5.40;99.90;;;;;;5000388;28;20033;-72
2022/11/22 07:48:48;;;;;;;9.95;1.75;;;5.40;99.90;;;;;;4985958;28;20030;-72
2022/11/22 07:51:14;;;;;;;3.35;1.65;;;5.40;99.90;;;;;;5002322;28;20041;-72
2022/11/22 07:53:40;;;;;;;8.63;2.08;;;5.40;99.90;;;;;;5002324;28;20038;-72
2022/11/22 07:56:06;;;;;;;3.30;1.77;;;5.40;99.90;;;;;;5000650;28;20081;-72
2022/11/22 07:58:32;;;;;;;4.72;1.52;;;5.40;99.90;;;;;;5000018;28;20038;-72
2022/11/22 08:01:04;;;;;;;3.13;0.85;;;5.40;99.90;;;;;;4995635;28;20081;-72
2022/11/22 08:03:30;;;;;;;5.38;1.67;;;5.40;99.90;;;;;;5000630;28;20053;-72
2022/11/22 08:06:00;;;;;;;3.80;1.83;;;5.40;99.90;;;;;;4998784;28;20042;-72
2022/11/22 08:08:25;;;;;;;13.15;1.70;;;5.40;99.90;;;;;;5002973;28;20040;-72
2022/11/22 08:10:51;;;;;;;6.70;1.15;;;5.40;99.90;;;;;;5001120;28;20049;-72
2022/11/22 08:13:17;;;;;;;4.28;1.70;;;5.40;99.90;;;;;;4997228;28;20065;-72
2022/11/22 08:15:42;;;;;;;2.13;1.33;;;5.40;99.90;;;;;;5000217;28;20038;-72
2022/11/22 08:18:08;;;;;;;11.50;1.65;;;5.40;99.90;;;;;;5002395;28;20033;-72
2022/11/22 08:20:33;;;;;;;4.68;1.20;;;5.40;99.90;;;;;;5003290;28;20062;-72
2022/11/22 08:22:59;;;;;;;5.72;1.42;;;5.40;99.90;;;;;;5001517;28;20044;-72
2022/11/22 08:25:25;;;;;;;2.03;1.30;;;5.40;99.90;;;;;;4999947;28;20403;-72
2022/11/22 08:27:50;;;;;;;4.18;1.40;;;5.40;99.90;;;;;;4998420;28;20032;-72
2022/11/22 08:30:16;;;;;;;3.60;1.70;;;5.40;99.90;;;;;;5001216;28;20515;-74
2022/11/22 08:32:41;;;;;;;2.00;0.85;;;5.50;99.90;;;;;;4999809;28;20385;-72
2022/11/22 08:35:07;;;;;;;3.70;1.25;;;5.40;99.90;;;;;;5000885;28;20042;-72
2022/11/22 08:37:33;;;;;;;1.67;0.70;;;5.50;99.90;;;;;;5002770;28;20045;-71
2022/11/22 08:39:59;;;;;;;3.03;1.08;;;5.50;99.90;;;;;;4997919;28;20068;-72
2022/11/22 08:42:24;;;;;;;1.77;0.98;;;5.50;99.90;;;;;;5001261;28;20065;-72
2022/11/22 08:44:50;;;;;;;2.45;0.80;;;5.50;99.90;;;;;;4999304;28;20316;-72
2022/11/22 08:47:16;;;;;;;9.70;1.02;;;5.50;99.90;;;;;;4998191;28;20052;-72
2022/11/22 08:49:41;;;;;;;3.47;1.35;;;5.50;99.90;;;;;;5002485;28;20446;-72
2022/11/22 08:52:07;;;;;;;6.93;0.95;;;5.50;99.90;;;;;;4998903;28;20049;-72
2022/11/22 08:54:32;;;;;;;3.95;1.10;;;5.50;99.90;;;;;;5003345;28;20398;-72
2022/11/22 08:56:58;;;;;;;2.92;1.48;;;5.50;99.90;;;;;;5000314;28;20092;-72
2022/11/22 08:59:24;;;;;;;0.95;0.57;;;5.50;99.90;;;;;;4994203;28;20045;-72
2022/11/22 09:01:49;;;;;;;1.33;1.08;;;5.50;99.90;;;;;;4979070;28;20045;-72
2022/11/22 09:04:15;;;;;;;1.83;0.90;;;5.50;99.90;;;;;;5003320;28;20445;-72
2022/11/22 09:06:40;;;;;;;4.85;1.15;;;5.60;99.90;;;;;;5001037;28;20029;-72
2022/11/22 09:09:06;;;;;;;3.35;0.85;;;5.50;99.90;;;;;;4980837;28;20557;-72
2022/11/22 09:11:32;;;;;;;2.72;1.17;;;5.50;99.90;;;;;;5001393;28;20053;-72
2022/11/22 09:13:57;;;;;;;1.35;0.70;;;5.50;99.90;;;;;;5001009;28;20080;-72
2022/11/22 09:16:23;;;;;;;2.10;0.90;;;5.60;99.90;;;;;;4996581;28;20099;-74
2022/11/22 09:18:49;;;;;;;3.63;1.02;;;5.60;99.90;;;;;;4998552;28;20419;-74
2022/11/22 09:21:18;;;;;;;0.95;0.47;;;5.60;99.90;;;;;;5004716;28;20407;-74
2022/11/22 09:23:46;;;;;;;1.08;0.57;;;5.60;99.90;;;;;;4979075;28;20633;-74
2022/11/22 09:26:14;;;;;;;12.88;1.33;;;5.70;99.90;;;;;;4984232;28;20042;-74
2022/11/22 09:28:40;;;;;;;3.33;0.68;;;5.80;99.90;;;;;;4993541;28;20034;-73
2022/11/22 09:31:08;;;;;;;6.20;1.17;;;5.80;99.90;;;;;;4997035;28;20049;-74
2022/11/22 09:33:36;;;;;;;1.15;0.43;;;5.80;99.90;;;;;;5000644;28;20085;-74
2022/11/22 09:36:07;;;;;;;3.38;0.75;;;5.90;99.90;;;;;;5000149;28;20109;-74
2022/11/22 09:38:34;;;;;;;1.63;0.82;;;5.90;99.90;;;;;;4997081;28;20053;-74
2022/11/22 09:41:15;;;;;;;0.90;0.50;;;5.90;99.90;;;;;;4999003;28;20054;-74
2022/11/22 09:44:06;;;;;;;7.40;1.00;;;5.90;99.90;;;;;;4997555;28;20491;-72
2022/11/22 09:46:53;;;;;;;3.42;0.82;;;6.00;99.90;;;;;;5015107;28;20586;-72
2022/11/22 09:49:27;;;;;;;2.88;0.75;;;6.00;99.90;;;;;;4979996;28;20057;-74
2022/11/22 09:52:00;;;;;;;4.28;1.15;;;6.10;99.90;;;;;;4998335;28;20037;-74
2022/11/22 09:54:38;;;;;;;13.48;1.50;;;6.10;99.90;;;;;;4999723;28;20045;-76
2022/11/22 09:57:11;;;;;;;1.30;0.77;;;6.10;99.90;;;;;;4982310;28;20442;-74
2022/11/22 09:59:42;;;;;;;2.50;0.82;;;6.10;99.90;;;;;;4994271;28;20049;-74
2022/11/22 10:02:24;;;;;;;1.38;0.90;;;6.20;99.90;;;;;;4998810;28;20045;-74
2022/11/22 10:04:59;;;;;;;1.25;0.65;;;6.20;99.90;;;;;;5000805;28;20503;-74
2022/11/22 10:07:38;;;;;;;3.40;0.77;;;6.20;99.90;;;;;;4999838;28;20057;-74
2022/11/22 10:10:40;;;;;;;2.05;0.93;;;6.20;99.90;;;;;;4997021;28;20038;-74
2022/11/22 10:13:18;;;;;;;3.53;0.75;;;6.30;99.90;;;;;;4954282;28;20408;-74
2022/11/22 10:15:57;;;;;;;0.45;0.38;;;6.30;99.90;;;;;;4997102;28;20078;-74
2022/11/22 10:18:47;;;;;;;1.67;0.90;;;6.30;99.90;;;;;;4995576;28;20056;-74
2022/11/22 10:21:14;;;;;;;2.33;0.55;;;6.40;99.90;;;;;;4978965;28;20053;-74
2022/11/22 10:23:41;;;;;;;2.85;0.68;;;6.40;99.90;;;;;;5010746;28;20057;-74
2022/11/22 10:26:26;;;;;;;3.65;0.60;;;6.40;99.90;;;;;;4998359;28;20038;-74
2022/11/22 10:29:02;;;;;;;5.30;0.75;;;6.50;99.90;;;;;;4996834;28;20034;-74
2022/11/22 10:31:54;;;;;;;;;;;6.50;99.90;;;;;;4998349;28;20058;-74
2022/11/22 10:34:48;;;;;;;2.92;0.70;;;6.50;99.90;;;;;;4972870;28;19987;-73
2022/11/22 10:37:41;;;;;;;3.38;0.82;;;6.50;99.90;;;;;;4980730;28;20038;-73
2022/11/22 10:40:21;;;;;;;0.82;0.47;;;6.60;99.90;;;;;;5002691;28;20088;-73
2022/11/22 10:43:05;;;;;;;2.10;0.65;;;6.60;99.90;;;;;;5003228;28;20049;-73
2022/11/22 10:45:55;;;;;;;2.67;0.77;;;6.60;99.90;;;;;;4979706;28;20046;-74
2022/11/22 10:48:39;;;;;;;1.58;0.60;;;6.60;99.90;;;;;;5013848;28;20124;-74
2022/11/22 10:51:43;;;;;;;1.17;0.80;;;6.70;99.90;;;;;;4997486;28;20045;-74
2022/11/22 10:54:15;;;;;;;2.50;1.00;;;6.70;99.90;;;;;;5000652;28;20092;-73
2022/11/22 10:57:06;;;;;;;1.15;0.60;;;6.70;99.90;;;;;;4981412;28;20034;-74
2022/11/22 10:59:42;;;;;;;2.15;0.50;;;6.70;99.90;;;;;;4993091;28;20050;-74
2022/11/22 11:02:26;;;;;;;1.80;0.68;;;6.70;99.90;;;;;;4998124;28;20107;-74
2022/11/22 11:04:54;;;;;;;9.30;0.90;;;6.70;99.90;;;;;;4997136;28;20456;-73
2022/11/22 11:07:23;;;;;;;1.30;0.50;;;6.60;99.90;;;;;;4997420;28;20409;-74
2022/11/22 11:09:53;;;;;;;6.05;0.90;;;6.70;99.90;;;;;;4995442;28;20554;-73
2022/11/22 11:12:24;;;;;;;1.15;0.45;;;6.70;99.90;;;;;;4994147;28;20049;-74
2022/11/22 11:14:59;;;;;;;3.92;0.95;;;6.70;99.90;;;;;;4995245;28;20399;-73
2022/11/22 11:17:36;;;;;;;4.82;0.80;;;6.70;99.90;;;;;;4997203;28;20038;-73
2022/11/22 11:20:12;;;;;;;1.42;0.73;;;6.70;99.90;;;;;;4996931;28;20057;-73
2022/11/22 11:22:38;;;;;;;1.85;0.75;;;6.80;99.90;;;;;;4995902;28;20034;-73
2022/11/22 11:25:30;;;;;;;0.57;0.40;;;6.80;99.90;;;;;;4996655;28;20098;-73
2022/11/22 11:28:07;;;;;;;3.40;1.00;;;6.80;99.90;;;;;;4997028;28;21516;-74
2022/11/22 11:30:38;;;;;;;2.03;0.55;;;6.80;99.90;;;;;;4982014;28;20495;-74
2022/11/22 11:33:17;;;;;;;3.10;0.52;;;6.80;99.90;;;;;;4983514;28;20475;-73
2022/11/22 11:35:45;;;;;;;2.42;0.80;;;6.90;99.90;;;;;;4996408;28;20030;-73
2022/11/22 11:38:43;;;;;;;0.20;0.20;;;6.90;99.90;;;;;;4998080;28;20052;-74
2022/11/22 11:41:31;;;;;;;3.03;0.60;;;6.90;99.90;;;;;;4983456;28;20046;-73
2022/11/22 11:44:00;;;;;;;1.23;0.63;;;6.90;99.90;;;;;;4994188;28;20283;-73
2022/11/22 11:46:44;;;;;;;1.13;0.90;;;6.90;99.90;;;;;;4979570;28;20052;-74
2022/11/22 11:49:14;;;;;;;4.28;0.70;;;6.90;99.90;;;;;;4992464;28;20050;-73
2022/11/22 11:51:54;;;;;;;3.45;1.00;;;6.90;99.90;;;;;;4995730;28;20034;-74
2022/11/22 11:54:25;;;;;;;3.45;0.63;;;7.00;99.90;;;;;;5000001;28;20060;-73
2022/11/22 11:56:56;;;;;;;8.45;0.95;;;7.00;99.90;;;;;;5004272;28;20112;-74
2022/11/22 11:59:31;;;;;;;1.73;0.63;;;7.00;99.90;;;;;;4996181;28;20476;-74
2022/11/22 12:01:56;;;;;;;4.53;0.70;;;7.00;99.90;;;;;;4996935;28;20052;-73
2022/11/22 12:04:33;;;;;;;6.55;1.48;;;7.00;99.90;;;;;;4995476;28;20045;-73
2022/11/22 12:07:02;;;;;;;1.15;0.60;;;7.00;99.90;;;;;;4998267;28;20467;-74
2022/11/22 12:09:34;;;;;;;0.88;0.50;;;7.00;99.90;;;;;;5001129;28;20050;-74
2022/11/22 12:12:26;;;;;;;2.30;1.05;;;7.10;99.90;;;;;;5001457;28;20041;-74
2022/11/22 12:15:15;;;;;;;7.90;1.75;;;7.10;99.90;;;;;;4995255;28;20049;-74
2022/11/22 12:18:05;;;;;;;1.13;0.60;;;7.10;99.90;;;;;;4986981;28;20048;-74
2022/11/22 12:21:12;;;;;;;0.90;0.38;;;7.20;99.90;;;;;;4999782;28;20073;-73
2022/11/22 12:23:56;;;;;;;;;;;7.20;99.90;;;;;;4999488;28;20054;-75
2022/11/22 12:26:22;;;;;;;1.98;0.82;;;7.20;99.90;;;;;;4996847;28;19917;-74
2022/11/22 12:28:49;;;;;;;1.02;0.32;;;7.20;99.90;;;;;;4990956;28;20037;-74
2022/11/22 12:31:28;;;;;;;0.25;0.20;;;7.20;99.90;;;;;;5012162;28;20081;-73
2022/11/22 12:34:04;;;;;;;3.33;0.60;;;7.20;99.90;;;;;;4982785;28;20109;-73
2022/11/22 12:36:49;;;;;;;;;;;7.20;99.90;;;;;;5009777;28;20041;-73
2022/11/22 12:39:20;;;;;;;5.40;0.70;;;7.30;99.90;;;;;;5011572;28;19972;-73
2022/11/22 12:41:48;;;;;;;2.63;0.60;;;7.30;99.90;;;;;;5029011;28;20044;-73
2022/11/22 12:44:17;;;;;;;2.78;0.82;;;7.30;99.90;;;;;;5018323;28;20304;-73
2022/11/22 12:46:58;;;;;;;1.20;0.57;;;7.30;99.90;;;;;;5011549;28;20038;-73
2022/11/22 12:49:44;;;;;;;0.47;0.28;;;7.30;99.90;;;;;;5023117;28;20042;-73
2022/11/22 12:52:28;;;;;;;;;;;7.30;99.90;;;;;;5010062;28;20498;-73
2022/11/22 12:55:21;;;;;;;1.02;0.40;;;7.30;99.90;;;;;;5009816;28;19964;-73
2022/11/22 12:58:15;;;;;;;0.93;0.55;;;7.30;99.90;;;;;;5020390;28;20044;-73
2022/11/22 13:00:53;;;;;;;1.52;0.30;;;7.30;99.90;;;;;;5025622;28;20041;-73
2022/11/22 13:03:49;;;;;;;2.53;0.47;;;7.30;99.90;;;;;;5016469;28;20037;-73
2022/11/22 13:06:21;;;;;;;0.90;0.32;;;7.30;99.90;;;;;;5008212;28;20586;-71
2022/11/22 13:09:01;;;;;;;0.75;0.30;;;7.30;99.90;;;;;;5015641;28;20056;-71
2022/11/22 13:11:53;;;;;;;5.30;0.65;;;7.30;99.90;;;;;;5015993;28;20045;-72
2022/11/22 13:14:32;;;;;;;2.47;0.55;;;7.30;99.90;;;;;;5006027;28;20057;-71
2022/11/22 13:16:58;;;;;;;1.25;0.40;;;7.30;99.90;;;;;;5009034;28;20080;-71
2022/11/22 13:19:26;;;;;;;1.33;0.70;;;7.30;99.90;;;;;;5009334;28;20943;-71
2022/11/22 13:21:55;;;;;;;0.60;0.20;;;7.30;99.90;;;;;;5008786;28;20124;-71